TimeCDT,TemperatureF,Dew PointF,Humidity,Sea Level PressureIn,VisibilityMPH,Wind Direction,Wind SpeedMPH,Gust SpeedMPH,PrecipitationIn,Events,Conditions,WindDirDegrees,DateUTC
12:31 AM,66.2,64.4,94,30.03,2.0,West,10.4,-,N/A,Rain-Thunderstorm,Thunderstorms and Rain,280,2013-05-27 05:31:00
12:41 AM,68.0,64.4,88,30.03,4.0,West,9.2,-,N/A,Rain-Thunderstorm,Thunderstorms and Rain,270,2013-05-27 05:41:00
12:54 AM,68.0,64.9,90,30.00,6.0,North,5.8,-,N/A,Rain-Thunderstorm,Light Thunderstorms and Rain,350,2013-05-27 05:54:00
1:19 AM,66.2,64.4,94,30.00,9.0,East,5.8,-,N/A,Rain,Light Rain,80,2013-05-27 06:19:00
1:54 AM,68.0,66.0,93,29.98,9.0,ESE,6.9,-,N/A,,Overcast,110,2013-05-27 06:54:00
2:54 AM,66.9,64.9,93,29.97,10.0,ESE,5.8,-,0.01,,Overcast,120,2013-05-27 07:54:00
3:54 AM,66.9,64.9,93,29.96,10.0,SE,4.6,-,N/A,,Mostly Cloudy,140,2013-05-27 08:54:00
4:54 AM,69.1,63.0,81,29.91,10.0,South,15.0,-,0.01,Rain,Light Rain,170,2013-05-27 09:54:00
5:54 AM,68.0,63.0,84,29.90,10.0,SW,5.8,-,0.01,,Partly Cloudy,220,2013-05-27 10:54:00
6:54 AM,69.1,64.0,84,29.94,10.0,West,5.8,-,0.01,,Partly Cloudy,260,2013-05-27 11:54:00
7:54 AM,70.0,64.0,81,29.94,10.0,SW,6.9,-,N/A,,Clear,230,2013-05-27 12:54:00
8:54 AM,73.0,64.9,76,29.96,10.0,West,4.6,-,0.01,,Partly Cloudy,260,2013-05-27 13:54:00
9:54 AM,77.0,66.0,69,29.93,10.0,SW,9.2,-,0.01,,Clear,220,2013-05-27 14:54:00
10:54 AM,78.1,66.9,68,29.90,10.0,South,9.2,-,0.01,,Partly Cloudy,170,2013-05-27 15:54:00
11:54 AM,80.1,66.9,64,29.91,10.0,SSW,9.2,-,N/A,,Mostly Cloudy,210,2013-05-27 16:54:00
12:28 PM,80.6,69.8,70,29.91,10.0,South,9.2,-,0.01,Thunderstorm,Scattered Clouds,180,2013-05-27 17:28:00
12:54 PM,77.0,69.1,76,29.90,4.0,SSW,12.7,-,0.01,Rain-Thunderstorm,Rain,210,2013-05-27 17:54:00
1:16 PM,78.8,69.8,74,29.90,8.0,SSW,8.1,-,0.00,Rain-Thunderstorm,Light Rain,200,2013-05-27 18:16:00
1:49 PM,82.4,69.8,66,29.89,10.0,SSW,13.8,-,0.00,,Partly Cloudy,210,2013-05-27 18:49:00
1:54 PM,82.0,69.1,65,29.88,10.0,SSW,15.0,-,0.00,,Scattered Clouds,210,2013-05-27 18:54:00
2:33 PM,80.6,68.0,65,29.90,10.0,NW,25.3,44.9,0.01,Thunderstorm,Mostly Cloudy,310,2013-05-27 19:33:00
2:39 PM,71.6,64.4,78,29.92,10.0,NNW,21.9,44.9,0.01,Thunderstorm,Mostly Cloudy,330,2013-05-27 19:39:00
2:49 PM,69.8,62.6,78,29.92,10.0,WNW,19.6,35.7,0.01,Rain-Thunderstorm,Light Thunderstorms and Rain,300,2013-05-27 19:49:00
2:54 PM,68.0,63.0,84,29.92,10.0,West,16.1,35.7,0.01,Rain-Thunderstorm,Light Thunderstorms and Rain,280,2013-05-27 19:54:00
3:09 PM,68.0,62.6,83,29.94,7.0,NW,16.1,33.4,0.00,Rain-Thunderstorm,Light Thunderstorms and Rain,320,2013-05-27 20:09:00
3:16 PM,66.2,64.4,94,29.94,1.8,NW,13.8,24.2,0.00,Rain-Thunderstorm,Heavy Thunderstorms and Rain,310,2013-05-27 20:16:00
3:27 PM,66.2,64.4,94,29.95,3.0,NW,10.4,-,N/A,Rain-Thunderstorm,Light Thunderstorms and Rain,310,2013-05-27 20:27:00
3:54 PM,66.9,64.0,90,29.92,5.0,West,4.6,-,N/A,Rain-Thunderstorm,Light Rain,260,2013-05-27 20:54:00
4:34 PM,66.2,64.4,94,29.88,7.0,SSE,10.4,-,N/A,Rain,Light Rain,160,2013-05-27 21:34:00
4:44 PM,66.2,64.4,94,29.86,6.0,SSE,13.8,-,N/A,Rain-Thunderstorm,Light Thunderstorms and Rain,150,2013-05-27 21:44:00
4:54 PM,66.9,64.0,90,29.81,6.0,SSE,18.4,26.5,N/A,Rain-Thunderstorm,Light Rain,150,2013-05-27 21:54:00
5:01 PM,66.2,64.4,94,29.82,9.0,SSE,12.7,-,N/A,Rain,Light Rain,150,2013-05-27 22:01:00
5:16 PM,68.0,62.6,83,29.74,10.0,SE,16.1,27.6,N/A,Rain-Thunderstorm,Light Rain,130,2013-05-27 22:16:00
5:31 PM,71.6,60.8,69,29.72,10.0,SSE,23.0,38.0,N/A,,Scattered Clouds,160,2013-05-27 22:31:00
5:54 PM,70.0,61.0,73,29.74,10.0,South,25.3,34.5,N/A,,Clear,170,2013-05-27 22:54:00
6:32 PM,69.8,62.6,78,29.80,10.0,WSW,10.4,-,N/A,,Clear,250,2013-05-27 23:32:00
6:54 PM,69.1,63.0,81,29.79,10.0,West,4.6,-,N/A,,Clear,270,2013-05-27 23:54:00
7:54 PM,68.0,63.0,84,29.81,10.0,SSW,3.5,-,N/A,,Clear,210,2013-05-28 00:54:00
8:54 PM,66.9,63.0,87,29.80,10.0,SSE,4.6,-,0.01,,Clear,160,2013-05-28 01:54:00
9:54 PM,70.0,63.0,78,29.83,10.0,SSE,8.1,-,N/A,,Clear,160,2013-05-28 02:54:00
10:54 PM,69.1,63.0,81,29.85,10.0,SSE,6.9,-,N/A,,Clear,160,2013-05-28 03:54:00
11:54 PM,64.9,63.0,93,29.86,10.0,East,5.8,-,N/A,,Clear,100,2013-05-28 04:54:00